sensor_id;sensor_type;location;lat;lon;timestamp;temperature;humidity
31809;DHT22;18379;48.208;-1.518;2022-08-05T00:04:43;17.60;99.40
31809;DHT22;18379;48.208;-1.518;2022-08-05T00:09:45;17.50;99.70
31809;DHT22;18379;48.208;-1.518;2022-08-05T00:14:46;17.60;99.70
31809;DHT22;18379;48.208;-1.518;2022-08-05T00:19:46;17.50;99.80
31809;DHT22;18379;48.208;-1.518;2022-08-05T00:24:47;17.40;99.90
31809;DHT22;18379;48.208;-1.518;2022-08-05T00:29:48;17.30;99.90
31809;DHT22;18379;48.208;-1.518;2022-08-05T00:34:49;17.10;99.90
31809;DHT22;18379;48.208;-1.518;2022-08-05T00:39:49;17.10;99.90
31809;DHT22;18379;48.208;-1.518;2022-08-05T00:44:50;17.00;99.90
31809;DHT22;18379;48.208;-1.518;2022-08-05T00:49:51;17.00;99.90
31809;DHT22;18379;48.208;-1.518;2022-08-05T00:54:52;17.00;99.90
31809;DHT22;18379;48.208;-1.518;2022-08-05T00:59:52;17.00;99.90
31809;DHT22;18379;48.208;-1.518;2022-08-05T01:04:53;17.00;99.90
31809;DHT22;18379;48.208;-1.518;2022-08-05T01:09:54;17.00;99.90
31809;DHT22;18379;48.208;-1.518;2022-08-05T01:15:04;17.00;99.90
31809;DHT22;18379;48.208;-1.518;2022-08-05T01:35:58;17.00;99.90
31809;DHT22;18379;48.208;-1.518;2022-08-05T01:41:01;17.00;99.90
31809;DHT22;18379;48.208;-1.518;2022-08-05T01:46:03;16.90;99.90
31809;DHT22;18379;48.208;-1.518;2022-08-05T01:51:04;16.80;99.90
31809;DHT22;18379;48.208;-1.518;2022-08-05T01:56:06;16.80;99.90
31809;DHT22;18379;48.208;-1.518;2022-08-05T02:01:11;16.70;99.90
31809;DHT22;18379;48.208;-1.518;2022-08-05T02:06:13;16.80;99.90
31809;DHT22;18379;48.208;-1.518;2022-08-05T02:11:15;16.60;99.90
31809;DHT22;18379;48.208;-1.518;2022-08-05T02:16:20;16.60;99.90
31809;DHT22;18379;48.208;-1.518;2022-08-05T02:21:47;16.50;99.90
31809;DHT22;18379;48.208;-1.518;2022-08-05T02:26:51;16.50;99.90
31809;DHT22;18379;48.208;-1.518;2022-08-05T02:31:56;16.40;99.90
31809;DHT22;18379;48.208;-1.518;2022-08-05T02:37:04;16.40;99.90
31809;DHT22;18379;48.208;-1.518;2022-08-05T02:42:07;16.40;99.90
31809;DHT22;18379;48.208;-1.518;2022-08-05T02:47:10;16.30;99.90
31809;DHT22;18379;48.208;-1.518;2022-08-05T02:52:17;16.30;99.90
31809;DHT22;18379;48.208;-1.518;2022-08-05T02:57:19;16.20;99.90
31809;DHT22;18379;48.208;-1.518;2022-08-05T03:02:25;16.20;99.90
31809;DHT22;18379;48.208;-1.518;2022-08-05T03:07:28;16.20;99.90
31809;DHT22;18379;48.208;-1.518;2022-08-05T03:12:34;16.10;99.90
31809;DHT22;18379;48.208;-1.518;2022-08-05T03:17:36;16.10;99.90
31809;DHT22;18379;48.208;-1.518;2022-08-05T03:22:37;16.10;99.90
31809;DHT22;18379;48.208;-1.518;2022-08-05T03:27:38;16.00;99.90
31809;DHT22;18379;48.208;-1.518;2022-08-05T03:32:39;16.10;99.90
31809;DHT22;18379;48.208;-1.518;2022-08-05T03:37:40;16.20;99.90
31809;DHT22;18379;48.208;-1.518;2022-08-05T03:42:41;16.20;99.90
31809;DHT22;18379;48.208;-1.518;2022-08-05T03:47:42;16.10;99.90
31809;DHT22;18379;48.208;-1.518;2022-08-05T03:52:59;16.00;99.90
31809;DHT22;18379;48.208;-1.518;2022-08-05T03:58:04;15.90;99.90
31809;DHT22;18379;48.208;-1.518;2022-08-05T04:03:11;15.90;99.90
31809;DHT22;18379;48.208;-1.518;2022-08-05T04:08:14;15.90;99.90
31809;DHT22;18379;48.208;-1.518;2022-08-05T04:13:14;15.70;99.90
31809;DHT22;18379;48.208;-1.518;2022-08-05T04:18:17;15.80;99.90
31809;DHT22;18379;48.208;-1.518;2022-08-05T04:23:19;15.70;99.90
31809;DHT22;18379;48.208;-1.518;2022-08-05T04:28:21;15.70;99.90
31809;DHT22;18379;48.208;-1.518;2022-08-05T04:33:22;15.60;99.90
31809;DHT22;18379;48.208;-1.518;2022-08-05T04:38:23;15.60;99.90
31809;DHT22;18379;48.208;-1.518;2022-08-05T04:43:23;15.50;99.90
31809;DHT22;18379;48.208;-1.518;2022-08-05T04:48:24;15.40;99.90
31809;DHT22;18379;48.208;-1.518;2022-08-05T04:53:25;15.40;99.90
31809;DHT22;18379;48.208;-1.518;2022-08-05T04:58:27;15.40;99.90
31809;DHT22;18379;48.208;-1.518;2022-08-05T05:03:27;15.50;99.90
31809;DHT22;18379;48.208;-1.518;2022-08-05T05:08:28;15.50;99.90
31809;DHT22;18379;48.208;-1.518;2022-08-05T05:13:29;15.50;99.90
31809;DHT22;18379;48.208;-1.518;2022-08-05T05:18:30;15.60;99.90
31809;DHT22;18379;48.208;-1.518;2022-08-05T05:23:31;15.70;99.90
31809;DHT22;18379;48.208;-1.518;2022-08-05T05:28:32;15.80;99.90
31809;DHT22;18379;48.208;-1.518;2022-08-05T05:33:33;15.90;99.90
31809;DHT22;18379;48.208;-1.518;2022-08-05T05:38:33;15.90;99.90
31809;DHT22;18379;48.208;-1.518;2022-08-05T05:43:34;15.80;99.90
31809;DHT22;18379;48.208;-1.518;2022-08-05T05:48:35;15.70;99.90
31809;DHT22;18379;48.208;-1.518;2022-08-05T05:53:36;15.70;99.90
31809;DHT22;18379;48.208;-1.518;2022-08-05T05:58:36;15.70;99.90
31809;DHT22;18379;48.208;-1.518;2022-08-05T06:03:37;15.90;99.90
31809;DHT22;18379;48.208;-1.518;2022-08-05T06:08:38;16.00;99.90
31809;DHT22;18379;48.208;-1.518;2022-08-05T06:13:39;16.10;99.90
31809;DHT22;18379;48.208;-1.518;2022-08-05T06:18:39;16.10;99.90
31809;DHT22;18379;48.208;-1.518;2022-08-05T06:23:40;16.20;99.90
31809;DHT22;18379;48.208;-1.518;2022-08-05T06:28:41;16.30;99.90
31809;DHT22;18379;48.208;-1.518;2022-08-05T06:33:42;16.30;99.90
31809;DHT22;18379;48.208;-1.518;2022-08-05T06:38:42;16.40;99.90
31809;DHT22;18379;48.208;-1.518;2022-08-05T06:43:43;16.40;99.90
31809;DHT22;18379;48.208;-1.518;2022-08-05T06:48:44;16.50;99.90
31809;DHT22;18379;48.208;-1.518;2022-08-05T06:53:45;16.60;99.90
31809;DHT22;18379;48.208;-1.518;2022-08-05T06:58:46;16.80;99.90
31809;DHT22;18379;48.208;-1.518;2022-08-05T07:03:46;16.90;99.90
31809;DHT22;18379;48.208;-1.518;2022-08-05T07:08:48;17.00;99.90
31809;DHT22;18379;48.208;-1.518;2022-08-05T07:13:49;17.20;99.90
31809;DHT22;18379;48.208;-1.518;2022-08-05T07:19:08;17.40;99.90
31809;DHT22;18379;48.208;-1.518;2022-08-05T07:24:09;17.60;99.90
31809;DHT22;18379;48.208;-1.518;2022-08-05T07:29:10;17.70;99.90
31809;DHT22;18379;48.208;-1.518;2022-08-05T07:34:11;17.60;99.90
31809;DHT22;18379;48.208;-1.518;2022-08-05T07:39:12;17.60;99.90
31809;DHT22;18379;48.208;-1.518;2022-08-05T07:44:13;17.60;99.90
31809;DHT22;18379;48.208;-1.518;2022-08-05T07:49:13;17.70;99.90
31809;DHT22;18379;48.208;-1.518;2022-08-05T07:54:14;17.90;99.90
31809;DHT22;18379;48.208;-1.518;2022-08-05T07:59:15;18.00;99.90
31809;DHT22;18379;48.208;-1.518;2022-08-05T08:04:16;18.10;99.90
31809;DHT22;18379;48.208;-1.518;2022-08-05T08:09:16;18.30;99.90
31809;DHT22;18379;48.208;-1.518;2022-08-05T08:14:17;18.40;99.90
31809;DHT22;18379;48.208;-1.518;2022-08-05T08:19:18;18.50;99.90
31809;DHT22;18379;48.208;-1.518;2022-08-05T08:24:19;18.50;99.10
31809;DHT22;18379;48.208;-1.518;2022-08-05T08:29:20;18.70;98.90
31809;DHT22;18379;48.208;-1.518;2022-08-05T08:34:22;18.80;98.90
31809;DHT22;18379;48.208;-1.518;2022-08-05T08:39:23;18.90;98.40
31809;DHT22;18379;48.208;-1.518;2022-08-05T08:44:28;19.00;98.10
31809;DHT22;18379;48.208;-1.518;2022-08-05T08:49:32;19.20;97.80
31809;DHT22;18379;48.208;-1.518;2022-08-05T08:54:34;19.30;97.30
31809;DHT22;18379;48.208;-1.518;2022-08-05T08:59:37;19.40;96.80
31809;DHT22;18379;48.208;-1.518;2022-08-05T09:04:38;19.40;96.30
31809;DHT22;18379;48.208;-1.518;2022-08-05T09:09:39;19.50;96.80
31809;DHT22;18379;48.208;-1.518;2022-08-05T09:14:40;19.70;95.40
31809;DHT22;18379;48.208;-1.518;2022-08-05T09:19:41;19.90;95.80
31809;DHT22;18379;48.208;-1.518;2022-08-05T09:24:42;19.90;95.10
31809;DHT22;18379;48.208;-1.518;2022-08-05T09:29:50;20.30;95.20
31809;DHT22;18379;48.208;-1.518;2022-08-05T09:34:53;20.50;93.70
31809;DHT22;18379;48.208;-1.518;2022-08-05T09:39:54;20.70;93.70
31809;DHT22;18379;48.208;-1.518;2022-08-05T09:44:55;21.00;94.20
31809;DHT22;18379;48.208;-1.518;2022-08-05T09:49:57;21.40;93.00
31809;DHT22;18379;48.208;-1.518;2022-08-05T09:55:07;21.60;91.30
31809;DHT22;18379;48.208;-1.518;2022-08-05T10:00:19;21.90;90.70
31809;DHT22;18379;48.208;-1.518;2022-08-05T10:05:27;22.40;89.90
31809;DHT22;18379;48.208;-1.518;2022-08-05T10:15:38;22.40;90.00
31809;DHT22;18379;48.208;-1.518;2022-08-05T10:20:45;22.40;87.40
31809;DHT22;18379;48.208;-1.518;2022-08-05T10:25:47;22.30;87.40
31809;DHT22;18379;48.208;-1.518;2022-08-05T10:30:47;22.30;88.50
31809;DHT22;18379;48.208;-1.518;2022-08-05T10:35:50;22.40;87.60
31809;DHT22;18379;48.208;-1.518;2022-08-05T10:41:01;22.40;87.50
31809;DHT22;18379;48.208;-1.518;2022-08-05T10:46:05;21.80;87.00
31809;DHT22;18379;48.208;-1.518;2022-08-05T10:51:10;21.90;86.90
31809;DHT22;18379;48.208;-1.518;2022-08-05T10:56:14;22.00;85.80
31809;DHT22;18379;48.208;-1.518;2022-08-05T11:01:15;22.50;84.00
31809;DHT22;18379;48.208;-1.518;2022-08-05T11:06:16;22.70;82.10
31809;DHT22;18379;48.208;-1.518;2022-08-05T11:11:35;22.40;82.20
31809;DHT22;18379;48.208;-1.518;2022-08-05T11:16:36;22.90;81.10
31809;DHT22;18379;48.208;-1.518;2022-08-05T11:21:37;22.50;80.10
31809;DHT22;18379;48.208;-1.518;2022-08-05T11:26:38;22.30;80.90
31809;DHT22;18379;48.208;-1.518;2022-08-05T11:31:40;22.60;79.60
31809;DHT22;18379;48.208;-1.518;2022-08-05T11:36:50;22.80;75.50
31809;DHT22;18379;48.208;-1.518;2022-08-05T11:41:51;23.20;75.60
31809;DHT22;18379;48.208;-1.518;2022-08-05T11:46:53;22.70;71.60
31809;DHT22;18379;48.208;-1.518;2022-08-05T11:51:54;22.60;73.90
31809;DHT22;18379;48.208;-1.518;2022-08-05T11:56:56;23.30;70.90
31809;DHT22;18379;48.208;-1.518;2022-08-05T12:01:59;23.40;69.50
31809;DHT22;18379;48.208;-1.518;2022-08-05T12:07:00;23.80;66.80
31809;DHT22;18379;48.208;-1.518;2022-08-05T12:12:01;23.70;67.10
31809;DHT22;18379;48.208;-1.518;2022-08-05T12:17:12;24.40;64.60
31809;DHT22;18379;48.208;-1.518;2022-08-05T12:22:15;24.00;64.20
31809;DHT22;18379;48.208;-1.518;2022-08-05T12:27:27;24.20;62.70
31809;DHT22;18379;48.208;-1.518;2022-08-05T12:32:31;24.40;61.90
31809;DHT22;18379;48.208;-1.518;2022-08-05T12:37:34;24.10;61.40
31809;DHT22;18379;48.208;-1.518;2022-08-05T12:42:35;23.30;64.40
31809;DHT22;18379;48.208;-1.518;2022-08-05T12:47:37;23.60;65.20
31809;DHT22;18379;48.208;-1.518;2022-08-05T12:52:37;23.40;65.30
31809;DHT22;18379;48.208;-1.518;2022-08-05T12:57:38;23.90;65.30
31809;DHT22;18379;48.208;-1.518;2022-08-05T13:02:39;24.30;65.10
31809;DHT22;18379;48.208;-1.518;2022-08-05T13:07:42;24.20;64.10
31809;DHT22;18379;48.208;-1.518;2022-08-05T13:12:44;24.10;62.70
31809;DHT22;18379;48.208;-1.518;2022-08-05T13:17:53;24.40;63.50
31809;DHT22;18379;48.208;-1.518;2022-08-05T13:22:54;23.90;64.70
31809;DHT22;18379;48.208;-1.518;2022-08-05T13:27:55;24.30;64.20
31809;DHT22;18379;48.208;-1.518;2022-08-05T13:32:57;23.90;63.60
31809;DHT22;18379;48.208;-1.518;2022-08-05T13:37:57;24.10;63.80
31809;DHT22;18379;48.208;-1.518;2022-08-05T13:42:58;23.90;63.80
31809;DHT22;18379;48.208;-1.518;2022-08-05T13:47:59;23.80;64.10
31809;DHT22;18379;48.208;-1.518;2022-08-05T13:53:00;23.80;64.80
31809;DHT22;18379;48.208;-1.518;2022-08-05T13:58:00;24.10;65.00
31809;DHT22;18379;48.208;-1.518;2022-08-05T14:03:02;24.10;63.50
31809;DHT22;18379;48.208;-1.518;2022-08-05T14:08:03;24.20;64.30
31809;DHT22;18379;48.208;-1.518;2022-08-05T14:13:05;23.80;63.30
31809;DHT22;18379;48.208;-1.518;2022-08-05T14:18:08;23.70;64.50
31809;DHT22;18379;48.208;-1.518;2022-08-05T14:23:09;23.70;64.70
31809;DHT22;18379;48.208;-1.518;2022-08-05T14:28:10;23.60;64.50
31809;DHT22;18379;48.208;-1.518;2022-08-05T14:33:11;23.50;65.10
31809;DHT22;18379;48.208;-1.518;2022-08-05T14:38:11;23.30;65.40
31809;DHT22;18379;48.208;-1.518;2022-08-05T14:43:12;23.30;64.80
31809;DHT22;18379;48.208;-1.518;2022-08-05T14:48:13;23.10;65.10
31809;DHT22;18379;48.208;-1.518;2022-08-05T14:53:14;23.10;66.00
31809;DHT22;18379;48.208;-1.518;2022-08-05T14:58:15;23.20;65.00
31809;DHT22;18379;48.208;-1.518;2022-08-05T15:03:15;23.30;64.00
31809;DHT22;18379;48.208;-1.518;2022-08-05T15:08:16;23.30;63.70
31809;DHT22;18379;48.208;-1.518;2022-08-05T15:13:17;23.10;64.30
31809;DHT22;18379;48.208;-1.518;2022-08-05T15:18:18;23.00;63.60
31809;DHT22;18379;48.208;-1.518;2022-08-05T15:23:20;22.80;64.70
31809;DHT22;18379;48.208;-1.518;2022-08-05T15:28:20;22.80;65.40
31809;DHT22;18379;48.208;-1.518;2022-08-05T15:33:22;22.60;65.20
31809;DHT22;18379;48.208;-1.518;2022-08-05T15:38:23;22.50;65.30
31809;DHT22;18379;48.208;-1.518;2022-08-05T15:43:24;22.50;64.90
31809;DHT22;18379;48.208;-1.518;2022-08-05T15:48:24;22.50;65.70
31809;DHT22;18379;48.208;-1.518;2022-08-05T15:53:25;22.30;66.10
31809;DHT22;18379;48.208;-1.518;2022-08-05T15:58:26;22.40;66.40
31809;DHT22;18379;48.208;-1.518;2022-08-05T16:03:27;22.20;67.30
31809;DHT22;18379;48.208;-1.518;2022-08-05T16:08:28;22.30;66.90
31809;DHT22;18379;48.208;-1.518;2022-08-05T16:13:29;22.20;67.10
31809;DHT22;18379;48.208;-1.518;2022-08-05T16:18:31;22.00;67.80
31809;DHT22;18379;48.208;-1.518;2022-08-05T16:23:32;21.90;67.40
31809;DHT22;18379;48.208;-1.518;2022-08-05T16:28:38;21.90;68.00
31809;DHT22;18379;48.208;-1.518;2022-08-05T16:33:39;21.90;68.70
31809;DHT22;18379;48.208;-1.518;2022-08-05T16:38:40;21.70;68.00
31809;DHT22;18379;48.208;-1.518;2022-08-05T16:43:40;21.50;68.70
31809;DHT22;18379;48.208;-1.518;2022-08-05T16:48:41;21.60;69.50
31809;DHT22;18379;48.208;-1.518;2022-08-05T16:53:43;21.60;69.50
31809;DHT22;18379;48.208;-1.518;2022-08-05T16:58:43;21.50;69.20
31809;DHT22;18379;48.208;-1.518;2022-08-05T17:03:44;21.20;70.60
31809;DHT22;18379;48.208;-1.518;2022-08-05T17:08:46;21.20;70.80
31809;DHT22;18379;48.208;-1.518;2022-08-05T17:13:46;21.20;70.80
31809;DHT22;18379;48.208;-1.518;2022-08-05T17:18:47;21.20;71.70
31809;DHT22;18379;48.208;-1.518;2022-08-05T17:23:48;21.20;71.50
31809;DHT22;18379;48.208;-1.518;2022-08-05T17:28:49;21.30;71.00
31809;DHT22;18379;48.208;-1.518;2022-08-05T17:33:50;21.10;70.30
31809;DHT22;18379;48.208;-1.518;2022-08-05T17:38:52;20.90;70.30
31809;DHT22;18379;48.208;-1.518;2022-08-05T17:43:53;21.00;70.30
31809;DHT22;18379;48.208;-1.518;2022-08-05T17:48:54;20.90;70.50
31809;DHT22;18379;48.208;-1.518;2022-08-05T17:53:55;20.80;70.30
31809;DHT22;18379;48.208;-1.518;2022-08-05T17:58:56;20.80;70.20
31809;DHT22;18379;48.208;-1.518;2022-08-05T18:03:56;20.90;70.50
31809;DHT22;18379;48.208;-1.518;2022-08-05T18:08:57;20.90;70.80
31809;DHT22;18379;48.208;-1.518;2022-08-05T18:14:02;20.90;71.50
31809;DHT22;18379;48.208;-1.518;2022-08-05T18:19:05;20.80;72.70
31809;DHT22;18379;48.208;-1.518;2022-08-05T18:24:07;20.60;73.50
31809;DHT22;18379;48.208;-1.518;2022-08-05T18:29:07;20.50;74.30
31809;DHT22;18379;48.208;-1.518;2022-08-05T18:34:08;20.40;74.90
31809;DHT22;18379;48.208;-1.518;2022-08-05T18:39:18;20.50;75.20
31809;DHT22;18379;48.208;-1.518;2022-08-05T18:44:19;20.50;75.70
31809;DHT22;18379;48.208;-1.518;2022-08-05T18:49:20;20.40;76.10
31809;DHT22;18379;48.208;-1.518;2022-08-05T18:54:40;20.30;76.70
31809;DHT22;18379;48.208;-1.518;2022-08-05T18:59:40;20.20;77.70
31809;DHT22;18379;48.208;-1.518;2022-08-05T19:04:41;20.00;78.90
31809;DHT22;18379;48.208;-1.518;2022-08-05T19:09:42;19.90;79.40
31809;DHT22;18379;48.208;-1.518;2022-08-05T19:14:45;19.90;80.10
31809;DHT22;18379;48.208;-1.518;2022-08-05T19:19:46;19.90;80.70
31809;DHT22;18379;48.208;-1.518;2022-08-05T19:24:47;19.80;81.30
31809;DHT22;18379;48.208;-1.518;2022-08-05T19:29:48;19.60;82.80
31809;DHT22;18379;48.208;-1.518;2022-08-05T19:34:49;19.50;83.40
31809;DHT22;18379;48.208;-1.518;2022-08-05T19:39:50;19.50;83.50
31809;DHT22;18379;48.208;-1.518;2022-08-05T19:44:51;19.40;84.30
31809;DHT22;18379;48.208;-1.518;2022-08-05T19:49:52;19.40;84.80
31809;DHT22;18379;48.208;-1.518;2022-08-05T19:54:53;19.30;85.50
31809;DHT22;18379;48.208;-1.518;2022-08-05T19:59:54;19.30;85.70
31809;DHT22;18379;48.208;-1.518;2022-08-05T20:04:55;19.10;86.30
31809;DHT22;18379;48.208;-1.518;2022-08-05T20:09:56;19.10;87.10
31809;DHT22;18379;48.208;-1.518;2022-08-05T20:14:56;19.00;87.40
31809;DHT22;18379;48.208;-1.518;2022-08-05T20:19:57;18.90;87.50
31809;DHT22;18379;48.208;-1.518;2022-08-05T20:25:00;18.80;88.20
31809;DHT22;18379;48.208;-1.518;2022-08-05T20:30:05;18.80;87.90
31809;DHT22;18379;48.208;-1.518;2022-08-05T20:35:06;18.70;88.80
31809;DHT22;18379;48.208;-1.518;2022-08-05T20:40:08;18.60;88.70
31809;DHT22;18379;48.208;-1.518;2022-08-05T20:45:09;18.50;89.30
31809;DHT22;18379;48.208;-1.518;2022-08-05T20:50:10;18.40;89.50
31809;DHT22;18379;48.208;-1.518;2022-08-05T20:55:12;18.30;90.20
31809;DHT22;18379;48.208;-1.518;2022-08-05T21:00:15;18.20;90.20
31809;DHT22;18379;48.208;-1.518;2022-08-05T21:05:16;18.00;90.30
31809;DHT22;18379;48.208;-1.518;2022-08-05T21:10:17;17.90;90.40
31809;DHT22;18379;48.208;-1.518;2022-08-05T21:15:18;17.80;90.30
31809;DHT22;18379;48.208;-1.518;2022-08-05T21:20:19;17.60;90.30
31809;DHT22;18379;48.208;-1.518;2022-08-05T21:25:20;17.60;90.30
31809;DHT22;18379;48.208;-1.518;2022-08-05T21:30:20;17.50;90.30
31809;DHT22;18379;48.208;-1.518;2022-08-05T21:35:21;17.40;90.20
31809;DHT22;18379;48.208;-1.518;2022-08-05T21:40:24;17.30;90.00
31809;DHT22;18379;48.208;-1.518;2022-08-05T21:45:24;17.20;89.80
31809;DHT22;18379;48.208;-1.518;2022-08-05T21:50:25;17.10;89.20
31809;DHT22;18379;48.208;-1.518;2022-08-05T21:55:26;17.00;88.90
31809;DHT22;18379;48.208;-1.518;2022-08-05T22:00:27;17.00;88.20
31809;DHT22;18379;48.208;-1.518;2022-08-05T22:05:29;16.90;88.10
31809;DHT22;18379;48.208;-1.518;2022-08-05T22:10:30;16.90;87.60
31809;DHT22;18379;48.208;-1.518;2022-08-05T22:15:30;16.80;87.20
31809;DHT22;18379;48.208;-1.518;2022-08-05T22:20:32;16.70;87.20
31809;DHT22;18379;48.208;-1.518;2022-08-05T22:25:33;16.60;87.20
31809;DHT22;18379;48.208;-1.518;2022-08-05T22:30:52;16.60;86.90
31809;DHT22;18379;48.208;-1.518;2022-08-05T22:35:52;16.50;86.90
31809;DHT22;18379;48.208;-1.518;2022-08-05T22:40:53;16.40;86.60
31809;DHT22;18379;48.208;-1.518;2022-08-05T22:45:54;16.40;86.50
31809;DHT22;18379;48.208;-1.518;2022-08-05T22:50:55;16.30;86.50
31809;DHT22;18379;48.208;-1.518;2022-08-05T22:55:56;16.20;86.50
31809;DHT22;18379;48.208;-1.518;2022-08-05T23:00:56;16.20;86.20
31809;DHT22;18379;48.208;-1.518;2022-08-05T23:05:57;16.10;86.00
31809;DHT22;18379;48.208;-1.518;2022-08-05T23:10:58;16.10;86.30
31809;DHT22;18379;48.208;-1.518;2022-08-05T23:15:59;16.10;86.30
31809;DHT22;18379;48.208;-1.518;2022-08-05T23:21:00;16.10;86.10
31809;DHT22;18379;48.208;-1.518;2022-08-05T23:26:01;16.00;86.20
31809;DHT22;18379;48.208;-1.518;2022-08-05T23:31:02;15.90;86.50
31809;DHT22;18379;48.208;-1.518;2022-08-05T23:36:03;15.90;86.60
31809;DHT22;18379;48.208;-1.518;2022-08-05T23:41:04;15.90;86.80
31809;DHT22;18379;48.208;-1.518;2022-08-05T23:46:05;15.80;87.20
31809;DHT22;18379;48.208;-1.518;2022-08-05T23:51:06;15.70;87.40
31809;DHT22;18379;48.208;-1.518;2022-08-05T23:56:06;15.60;87.70
